sensor_id;sensor_type;location;lat;lon;timestamp;P1;durP1;ratioP1;P2;durP2;ratioP2
19004;SDS011;9635;52.078;8.648;2022-10-17T00:04:30;6.35;;;5.13;;
19004;SDS011;9635;52.078;8.648;2022-10-17T00:09:35;8.20;;;5.82;;
19004;SDS011;9635;52.078;8.648;2022-10-17T00:14:39;6.75;;;6.05;;
19004;SDS011;9635;52.078;8.648;2022-10-17T00:19:41;7.00;;;6.00;;
19004;SDS011;9635;52.078;8.648;2022-10-17T00:24:45;13.85;;;6.78;;
19004;SDS011;9635;52.078;8.648;2022-10-17T00:29:48;8.18;;;6.93;;
19004;SDS011;9635;52.078;8.648;2022-10-17T00:34:52;9.00;;;7.00;;
19004;SDS011;9635;52.078;8.648;2022-10-17T00:39:56;7.40;;;6.40;;
19004;SDS011;9635;52.078;8.648;2022-10-17T00:45:02;7.47;;;6.68;;
19004;SDS011;9635;52.078;8.648;2022-10-17T00:50:16;8.52;;;6.30;;
19004;SDS011;9635;52.078;8.648;2022-10-17T00:55:22;9.15;;;6.40;;
19004;SDS011;9635;52.078;8.648;2022-10-17T01:00:29;11.60;;;7.25;;
19004;SDS011;9635;52.078;8.648;2022-10-17T01:05:33;8.70;;;7.22;;
19004;SDS011;9635;52.078;8.648;2022-10-17T01:10:39;8.63;;;6.97;;
19004;SDS011;9635;52.078;8.648;2022-10-17T01:15:51;12.50;;;7.45;;
19004;SDS011;9635;52.078;8.648;2022-10-17T01:26:47;9.35;;;7.68;;
19004;SDS011;9635;52.078;8.648;2022-10-17T01:32:02;10.02;;;9.02;;
19004;SDS011;9635;52.078;8.648;2022-10-17T01:37:12;10.88;;;8.27;;
19004;SDS011;9635;52.078;8.648;2022-10-17T01:42:22;11.02;;;7.32;;
19004;SDS011;9635;52.078;8.648;2022-10-17T01:47:31;9.50;;;8.27;;
19004;SDS011;9635;52.078;8.648;2022-10-17T01:52:37;12.27;;;7.82;;
19004;SDS011;9635;52.078;8.648;2022-10-17T01:57:45;8.63;;;7.43;;
19004;SDS011;9635;52.078;8.648;2022-10-17T02:02:54;9.93;;;7.93;;
19004;SDS011;9635;52.078;8.648;2022-10-17T02:08:00;9.98;;;7.90;;
19004;SDS011;9635;52.078;8.648;2022-10-17T02:13:04;11.88;;;7.18;;
19004;SDS011;9635;52.078;8.648;2022-10-17T02:18:21;9.68;;;7.85;;
19004;SDS011;9635;52.078;8.648;2022-10-17T02:23:50;13.13;;;8.30;;
19004;SDS011;9635;52.078;8.648;2022-10-17T02:28:59;12.40;;;7.95;;
19004;SDS011;9635;52.078;8.648;2022-10-17T02:34:10;12.13;;;6.97;;
19004;SDS011;9635;52.078;8.648;2022-10-17T02:44:23;10.30;;;6.68;;
19004;SDS011;9635;52.078;8.648;2022-10-17T02:49:30;10.07;;;7.35;;
19004;SDS011;9635;52.078;8.648;2022-10-17T02:54:38;9.80;;;8.05;;
19004;SDS011;9635;52.078;8.648;2022-10-17T02:59:44;11.35;;;7.95;;
19004;SDS011;9635;52.078;8.648;2022-10-17T03:04:50;10.48;;;8.68;;
19004;SDS011;9635;52.078;8.648;2022-10-17T03:09:53;11.32;;;7.82;;
19004;SDS011;9635;52.078;8.648;2022-10-17T03:14:56;9.13;;;7.97;;
19004;SDS011;9635;52.078;8.648;2022-10-17T03:20:00;13.52;;;8.95;;
19004;SDS011;9635;52.078;8.648;2022-10-17T03:25:04;12.55;;;8.57;;
19004;SDS011;9635;52.078;8.648;2022-10-17T03:30:09;14.10;;;9.10;;
19004;SDS011;9635;52.078;8.648;2022-10-17T03:35:14;10.32;;;9.23;;
19004;SDS011;9635;52.078;8.648;2022-10-17T03:40:21;14.63;;;9.65;;
19004;SDS011;9635;52.078;8.648;2022-10-17T03:45:24;11.57;;;9.18;;
19004;SDS011;9635;52.078;8.648;2022-10-17T03:50:28;14.93;;;9.82;;
19004;SDS011;9635;52.078;8.648;2022-10-17T03:55:32;13.43;;;10.32;;
19004;SDS011;9635;52.078;8.648;2022-10-17T04:00:35;10.93;;;9.75;;
19004;SDS011;9635;52.078;8.648;2022-10-17T04:05:40;9.98;;;8.00;;
19004;SDS011;9635;52.078;8.648;2022-10-17T04:10:44;12.35;;;8.75;;
19004;SDS011;9635;52.078;8.648;2022-10-17T04:15:52;11.93;;;8.30;;
19004;SDS011;9635;52.078;8.648;2022-10-17T04:20:57;12.35;;;9.63;;
19004;SDS011;9635;52.078;8.648;2022-10-17T04:26:05;16.33;;;9.25;;
19004;SDS011;9635;52.078;8.648;2022-10-17T04:31:09;11.00;;;9.45;;
19004;SDS011;9635;52.078;8.648;2022-10-17T04:36:35;14.38;;;9.88;;
19004;SDS011;9635;52.078;8.648;2022-10-17T04:41:38;13.18;;;10.25;;
19004;SDS011;9635;52.078;8.648;2022-10-17T04:46:41;14.00;;;9.68;;
19004;SDS011;9635;52.078;8.648;2022-10-17T04:51:45;17.23;;;10.07;;
19004;SDS011;9635;52.078;8.648;2022-10-17T04:56:55;12.98;;;9.57;;
19004;SDS011;9635;52.078;8.648;2022-10-17T05:01:58;16.30;;;10.25;;
19004;SDS011;9635;52.078;8.648;2022-10-17T05:07:03;12.52;;;9.05;;
19004;SDS011;9635;52.078;8.648;2022-10-17T05:12:11;13.75;;;10.23;;
19004;SDS011;9635;52.078;8.648;2022-10-17T05:17:18;16.85;;;9.57;;
19004;SDS011;9635;52.078;8.648;2022-10-17T05:22:22;12.15;;;10.10;;
19004;SDS011;9635;52.078;8.648;2022-10-17T05:27:25;16.05;;;9.45;;
19004;SDS011;9635;52.078;8.648;2022-10-17T05:32:28;15.38;;;9.65;;
19004;SDS011;9635;52.078;8.648;2022-10-17T05:37:33;12.30;;;9.70;;
19004;SDS011;9635;52.078;8.648;2022-10-17T05:42:37;16.25;;;10.40;;
19004;SDS011;9635;52.078;8.648;2022-10-17T05:47:46;15.90;;;10.10;;
19004;SDS011;9635;52.078;8.648;2022-10-17T05:52:53;15.98;;;11.48;;
19004;SDS011;9635;52.078;8.648;2022-10-17T05:57:57;15.57;;;10.43;;
19004;SDS011;9635;52.078;8.648;2022-10-17T06:03:06;12.77;;;9.65;;
19004;SDS011;9635;52.078;8.648;2022-10-17T06:08:12;9.63;;;5.88;;
19004;SDS011;9635;52.078;8.648;2022-10-17T06:13:16;10.93;;;8.00;;
19004;SDS011;9635;52.078;8.648;2022-10-17T06:18:23;6.13;;;4.75;;
19004;SDS011;9635;52.078;8.648;2022-10-17T06:23:28;7.10;;;6.07;;
19004;SDS011;9635;52.078;8.648;2022-10-17T06:28:42;9.27;;;6.30;;
19004;SDS011;9635;52.078;8.648;2022-10-17T06:33:46;9.75;;;7.68;;
19004;SDS011;9635;52.078;8.648;2022-10-17T06:38:50;10.85;;;8.82;;
19004;SDS011;9635;52.078;8.648;2022-10-17T06:44:00;10.55;;;7.85;;
19004;SDS011;9635;52.078;8.648;2022-10-17T06:49:27;11.52;;;7.63;;
19004;SDS011;9635;52.078;8.648;2022-10-17T06:54:50;10.88;;;6.70;;
19004;SDS011;9635;52.078;8.648;2022-10-17T07:00:15;13.13;;;6.88;;
19004;SDS011;9635;52.078;8.648;2022-10-17T07:05:23;6.50;;;5.65;;
19004;SDS011;9635;52.078;8.648;2022-10-17T07:10:27;6.93;;;5.75;;
19004;SDS011;9635;52.078;8.648;2022-10-17T07:15:30;10.15;;;6.78;;
19004;SDS011;9635;52.078;8.648;2022-10-17T07:20:33;8.52;;;6.45;;
19004;SDS011;9635;52.078;8.648;2022-10-17T07:25:38;7.82;;;7.00;;
19004;SDS011;9635;52.078;8.648;2022-10-17T07:30:43;8.65;;;6.53;;
19004;SDS011;9635;52.078;8.648;2022-10-17T07:35:51;8.23;;;6.22;;
19004;SDS011;9635;52.078;8.648;2022-10-17T07:40:55;8.43;;;6.00;;
19004;SDS011;9635;52.078;8.648;2022-10-17T07:45:59;6.90;;;6.20;;
19004;SDS011;9635;52.078;8.648;2022-10-17T07:51:04;7.53;;;5.60;;
19004;SDS011;9635;52.078;8.648;2022-10-17T07:56:10;6.30;;;5.18;;
19004;SDS011;9635;52.078;8.648;2022-10-17T08:01:13;9.23;;;5.75;;
19004;SDS011;9635;52.078;8.648;2022-10-17T08:06:16;7.82;;;5.45;;
19004;SDS011;9635;52.078;8.648;2022-10-17T08:11:21;7.43;;;5.15;;
19004;SDS011;9635;52.078;8.648;2022-10-17T08:16:25;6.63;;;4.85;;
19004;SDS011;9635;52.078;8.648;2022-10-17T08:21:28;9.45;;;5.25;;
19004;SDS011;9635;52.078;8.648;2022-10-17T08:26:32;7.38;;;5.18;;
19004;SDS011;9635;52.078;8.648;2022-10-17T08:31:41;12.90;;;5.90;;
19004;SDS011;9635;52.078;8.648;2022-10-17T08:36:48;6.88;;;5.32;;
19004;SDS011;9635;52.078;8.648;2022-10-17T08:41:57;5.63;;;4.97;;
19004;SDS011;9635;52.078;8.648;2022-10-17T08:47:08;6.18;;;5.28;;
19004;SDS011;9635;52.078;8.648;2022-10-17T08:52:17;5.13;;;4.53;;
19004;SDS011;9635;52.078;8.648;2022-10-17T08:57:28;12.30;;;4.78;;
19004;SDS011;9635;52.078;8.648;2022-10-17T09:02:34;7.18;;;4.07;;
19004;SDS011;9635;52.078;8.648;2022-10-17T09:07:44;6.55;;;4.50;;
19004;SDS011;9635;52.078;8.648;2022-10-17T09:13:03;6.22;;;3.75;;
19004;SDS011;9635;52.078;8.648;2022-10-17T09:18:17;7.53;;;4.40;;
19004;SDS011;9635;52.078;8.648;2022-10-17T09:23:26;7.40;;;3.85;;
19004;SDS011;9635;52.078;8.648;2022-10-17T09:28:34;6.40;;;3.90;;
19004;SDS011;9635;52.078;8.648;2022-10-17T09:33:40;7.88;;;4.47;;
19004;SDS011;9635;52.078;8.648;2022-10-17T09:39:00;7.47;;;3.78;;
19004;SDS011;9635;52.078;8.648;2022-10-17T09:44:13;4.78;;;3.60;;
19004;SDS011;9635;52.078;8.648;2022-10-17T09:49:20;3.42;;;2.88;;
19004;SDS011;9635;52.078;8.648;2022-10-17T09:54:32;6.20;;;2.55;;
19004;SDS011;9635;52.078;8.648;2022-10-17T09:59:47;5.18;;;2.63;;
19004;SDS011;9635;52.078;8.648;2022-10-17T10:04:59;6.38;;;2.75;;
19004;SDS011;9635;52.078;8.648;2022-10-17T10:10:06;3.65;;;2.80;;
19004;SDS011;9635;52.078;8.648;2022-10-17T10:15:33;5.90;;;3.03;;
19004;SDS011;9635;52.078;8.648;2022-10-17T10:20:38;7.90;;;3.10;;
19004;SDS011;9635;52.078;8.648;2022-10-17T10:25:47;6.97;;;2.70;;
19004;SDS011;9635;52.078;8.648;2022-10-17T10:30:56;3.30;;;2.50;;
19004;SDS011;9635;52.078;8.648;2022-10-17T10:36:03;6.53;;;2.90;;
19004;SDS011;9635;52.078;8.648;2022-10-17T10:41:08;5.38;;;2.50;;
19004;SDS011;9635;52.078;8.648;2022-10-17T10:46:17;5.13;;;3.00;;
19004;SDS011;9635;52.078;8.648;2022-10-17T10:51:22;5.65;;;2.33;;
19004;SDS011;9635;52.078;8.648;2022-10-17T10:56:32;4.07;;;2.35;;
19004;SDS011;9635;52.078;8.648;2022-10-17T11:01:41;7.35;;;2.60;;
19004;SDS011;9635;52.078;8.648;2022-10-17T11:06:51;3.97;;;2.27;;
19004;SDS011;9635;52.078;8.648;2022-10-17T11:12:00;8.35;;;2.90;;
19004;SDS011;9635;52.078;8.648;2022-10-17T11:17:11;5.68;;;2.20;;
19004;SDS011;9635;52.078;8.648;2022-10-17T11:22:20;6.50;;;2.95;;
19004;SDS011;9635;52.078;8.648;2022-10-17T11:27:29;12.45;;;3.35;;
19004;SDS011;9635;52.078;8.648;2022-10-17T11:32:35;8.77;;;2.92;;
19004;SDS011;9635;52.078;8.648;2022-10-17T11:37:45;4.30;;;3.25;;
19004;SDS011;9635;52.078;8.648;2022-10-17T11:42:52;11.05;;;3.88;;
19004;SDS011;9635;52.078;8.648;2022-10-17T11:48:03;8.90;;;3.55;;
19004;SDS011;9635;52.078;8.648;2022-10-17T11:53:13;5.68;;;3.30;;
19004;SDS011;9635;52.078;8.648;2022-10-17T11:58:27;6.22;;;3.70;;
19004;SDS011;9635;52.078;8.648;2022-10-17T12:09:15;5.70;;;3.70;;
19004;SDS011;9635;52.078;8.648;2022-10-17T12:14:34;7.38;;;3.33;;
19004;SDS011;9635;52.078;8.648;2022-10-17T12:19:45;5.28;;;3.00;;
19004;SDS011;9635;52.078;8.648;2022-10-17T12:24:53;7.57;;;3.35;;
19004;SDS011;9635;52.078;8.648;2022-10-17T12:29:58;5.45;;;3.70;;
19004;SDS011;9635;52.078;8.648;2022-10-17T12:35:04;3.92;;;3.50;;
19004;SDS011;9635;52.078;8.648;2022-10-17T12:45:49;5.53;;;4.20;;
19004;SDS011;9635;52.078;8.648;2022-10-17T12:51:04;8.60;;;4.97;;
19004;SDS011;9635;52.078;8.648;2022-10-17T12:56:30;8.60;;;4.50;;
19004;SDS011;9635;52.078;8.648;2022-10-17T13:01:36;7.45;;;4.60;;
19004;SDS011;9635;52.078;8.648;2022-10-17T13:06:44;10.20;;;3.83;;
19004;SDS011;9635;52.078;8.648;2022-10-17T13:11:49;6.35;;;3.88;;
19004;SDS011;9635;52.078;8.648;2022-10-17T13:16:53;7.38;;;4.43;;
19004;SDS011;9635;52.078;8.648;2022-10-17T13:21:59;10.65;;;4.32;;
19004;SDS011;9635;52.078;8.648;2022-10-17T13:27:20;9.15;;;3.83;;
19004;SDS011;9635;52.078;8.648;2022-10-17T13:32:25;12.85;;;4.80;;
19004;SDS011;9635;52.078;8.648;2022-10-17T13:37:39;5.47;;;3.85;;
19004;SDS011;9635;52.078;8.648;2022-10-17T13:42:43;6.07;;;3.55;;
19004;SDS011;9635;52.078;8.648;2022-10-17T13:47:47;10.43;;;3.85;;
19004;SDS011;9635;52.078;8.648;2022-10-17T13:58:19;7.13;;;3.70;;
19004;SDS011;9635;52.078;8.648;2022-10-17T14:03:22;12.82;;;5.20;;
19004;SDS011;9635;52.078;8.648;2022-10-17T14:08:47;10.73;;;3.78;;
19004;SDS011;9635;52.078;8.648;2022-10-17T14:13:55;7.38;;;3.85;;
19004;SDS011;9635;52.078;8.648;2022-10-17T14:18:59;8.43;;;3.28;;
19004;SDS011;9635;52.078;8.648;2022-10-17T14:24:15;5.97;;;3.72;;
19004;SDS011;9635;52.078;8.648;2022-10-17T14:29:28;8.52;;;4.05;;
19004;SDS011;9635;52.078;8.648;2022-10-17T14:34:32;7.07;;;3.83;;
19004;SDS011;9635;52.078;8.648;2022-10-17T14:39:38;7.38;;;4.10;;
19004;SDS011;9635;52.078;8.648;2022-10-17T14:44:41;6.13;;;4.07;;
19004;SDS011;9635;52.078;8.648;2022-10-17T14:49:47;8.70;;;4.07;;
19004;SDS011;9635;52.078;8.648;2022-10-17T14:54:52;10.82;;;3.80;;
19004;SDS011;9635;52.078;8.648;2022-10-17T14:59:55;10.27;;;4.05;;
19004;SDS011;9635;52.078;8.648;2022-10-17T15:04:58;7.90;;;4.53;;
19004;SDS011;9635;52.078;8.648;2022-10-17T15:10:02;4.97;;;4.05;;
19004;SDS011;9635;52.078;8.648;2022-10-17T15:15:06;5.40;;;4.47;;
19004;SDS011;9635;52.078;8.648;2022-10-17T15:20:10;8.68;;;4.70;;
19004;SDS011;9635;52.078;8.648;2022-10-17T15:25:17;8.68;;;4.60;;
19004;SDS011;9635;52.078;8.648;2022-10-17T15:30:21;7.05;;;4.57;;
19004;SDS011;9635;52.078;8.648;2022-10-17T15:35:26;8.52;;;4.60;;
19004;SDS011;9635;52.078;8.648;2022-10-17T15:40:31;7.38;;;3.85;;
19004;SDS011;9635;52.078;8.648;2022-10-17T15:45:34;7.45;;;4.35;;
19004;SDS011;9635;52.078;8.648;2022-10-17T15:50:38;6.47;;;3.70;;
19004;SDS011;9635;52.078;8.648;2022-10-17T15:55:42;8.75;;;4.40;;
19004;SDS011;9635;52.078;8.648;2022-10-17T16:00:45;9.60;;;4.80;;
19004;SDS011;9635;52.078;8.648;2022-10-17T16:05:48;11.35;;;5.18;;
19004;SDS011;9635;52.078;8.648;2022-10-17T16:10:52;10.23;;;4.18;;
19004;SDS011;9635;52.078;8.648;2022-10-17T16:15:55;9.32;;;5.07;;
19004;SDS011;9635;52.078;8.648;2022-10-17T16:20:58;11.32;;;4.47;;
19004;SDS011;9635;52.078;8.648;2022-10-17T16:26:02;8.02;;;4.10;;
19004;SDS011;9635;52.078;8.648;2022-10-17T16:31:09;9.77;;;4.60;;
19004;SDS011;9635;52.078;8.648;2022-10-17T16:36:19;8.80;;;4.50;;
19004;SDS011;9635;52.078;8.648;2022-10-17T16:41:24;10.05;;;6.75;;
19004;SDS011;9635;52.078;8.648;2022-10-17T16:46:29;10.07;;;5.40;;
19004;SDS011;9635;52.078;8.648;2022-10-17T16:51:32;10.85;;;6.25;;
19004;SDS011;9635;52.078;8.648;2022-10-17T16:56:38;11.82;;;6.53;;
19004;SDS011;9635;52.078;8.648;2022-10-17T17:01:42;12.65;;;7.22;;
19004;SDS011;9635;52.078;8.648;2022-10-17T17:06:45;14.38;;;8.98;;
19004;SDS011;9635;52.078;8.648;2022-10-17T17:11:49;12.63;;;8.40;;
19004;SDS011;9635;52.078;8.648;2022-10-17T17:16:51;10.50;;;6.93;;
19004;SDS011;9635;52.078;8.648;2022-10-17T17:21:54;11.68;;;8.18;;
19004;SDS011;9635;52.078;8.648;2022-10-17T17:26:58;14.02;;;8.63;;
19004;SDS011;9635;52.078;8.648;2022-10-17T17:32:01;16.23;;;8.40;;
19004;SDS011;9635;52.078;8.648;2022-10-17T17:37:04;13.05;;;8.82;;
19004;SDS011;9635;52.078;8.648;2022-10-17T17:42:08;12.63;;;9.10;;
19004;SDS011;9635;52.078;8.648;2022-10-17T17:47:11;12.63;;;8.52;;
19004;SDS011;9635;52.078;8.648;2022-10-17T17:52:14;14.23;;;9.88;;
19004;SDS011;9635;52.078;8.648;2022-10-17T17:57:18;15.63;;;10.00;;
19004;SDS011;9635;52.078;8.648;2022-10-17T18:02:21;15.23;;;10.88;;
19004;SDS011;9635;52.078;8.648;2022-10-17T18:07:24;14.00;;;9.88;;
19004;SDS011;9635;52.078;8.648;2022-10-17T18:12:28;22.77;;;11.18;;
19004;SDS011;9635;52.078;8.648;2022-10-17T18:17:32;16.77;;;10.52;;
19004;SDS011;9635;52.078;8.648;2022-10-17T18:22:35;23.17;;;11.70;;
19004;SDS011;9635;52.078;8.648;2022-10-17T18:27:39;14.65;;;9.88;;
19004;SDS011;9635;52.078;8.648;2022-10-17T18:32:42;20.33;;;10.13;;
19004;SDS011;9635;52.078;8.648;2022-10-17T18:37:45;14.05;;;10.65;;
19004;SDS011;9635;52.078;8.648;2022-10-17T18:42:51;18.45;;;11.40;;
19004;SDS011;9635;52.078;8.648;2022-10-17T18:47:54;13.35;;;10.48;;
19004;SDS011;9635;52.078;8.648;2022-10-17T18:52:57;16.70;;;12.65;;
19004;SDS011;9635;52.078;8.648;2022-10-17T18:58:01;17.40;;;11.43;;
19004;SDS011;9635;52.078;8.648;2022-10-17T19:03:04;17.05;;;11.27;;
19004;SDS011;9635;52.078;8.648;2022-10-17T19:08:07;15.38;;;11.55;;
19004;SDS011;9635;52.078;8.648;2022-10-17T19:13:12;20.55;;;11.50;;
19004;SDS011;9635;52.078;8.648;2022-10-17T19:18:21;17.10;;;11.50;;
19004;SDS011;9635;52.078;8.648;2022-10-17T19:23:23;15.70;;;11.60;;
19004;SDS011;9635;52.078;8.648;2022-10-17T19:28:28;16.83;;;12.52;;
19004;SDS011;9635;52.078;8.648;2022-10-17T19:33:31;17.65;;;11.70;;
19004;SDS011;9635;52.078;8.648;2022-10-17T19:38:35;18.23;;;13.20;;
19004;SDS011;9635;52.078;8.648;2022-10-17T19:43:40;19.98;;;13.95;;
19004;SDS011;9635;52.078;8.648;2022-10-17T19:48:45;17.23;;;14.13;;
19004;SDS011;9635;52.078;8.648;2022-10-17T19:53:49;23.75;;;15.43;;
19004;SDS011;9635;52.078;8.648;2022-10-17T19:58:54;20.63;;;15.85;;
19004;SDS011;9635;52.078;8.648;2022-10-17T20:03:57;23.15;;;15.73;;
19004;SDS011;9635;52.078;8.648;2022-10-17T20:09:00;19.23;;;15.00;;
19004;SDS011;9635;52.078;8.648;2022-10-17T20:14:04;24.85;;;16.88;;
19004;SDS011;9635;52.078;8.648;2022-10-17T20:19:08;22.38;;;16.80;;
19004;SDS011;9635;52.078;8.648;2022-10-17T20:24:14;18.95;;;15.80;;
19004;SDS011;9635;52.078;8.648;2022-10-17T20:29:19;20.98;;;14.55;;
19004;SDS011;9635;52.078;8.648;2022-10-17T20:34:24;19.42;;;14.85;;
19004;SDS011;9635;52.078;8.648;2022-10-17T20:39:27;25.08;;;17.83;;
19004;SDS011;9635;52.078;8.648;2022-10-17T20:44:32;26.88;;;16.45;;
19004;SDS011;9635;52.078;8.648;2022-10-17T20:49:34;22.67;;;17.33;;
19004;SDS011;9635;52.078;8.648;2022-10-17T20:54:37;25.88;;;18.80;;
19004;SDS011;9635;52.078;8.648;2022-10-17T20:59:42;26.25;;;19.15;;
19004;SDS011;9635;52.078;8.648;2022-10-17T21:04:45;27.27;;;18.98;;
19004;SDS011;9635;52.078;8.648;2022-10-17T21:09:50;26.55;;;19.10;;
19004;SDS011;9635;52.078;8.648;2022-10-17T21:14:54;27.65;;;18.20;;
19004;SDS011;9635;52.078;8.648;2022-10-17T21:19:57;26.83;;;19.92;;
19004;SDS011;9635;52.078;8.648;2022-10-17T21:24:59;27.73;;;18.38;;
19004;SDS011;9635;52.078;8.648;2022-10-17T21:30:04;22.05;;;18.02;;
19004;SDS011;9635;52.078;8.648;2022-10-17T21:35:13;26.30;;;18.38;;
19004;SDS011;9635;52.078;8.648;2022-10-17T21:40:16;22.27;;;16.58;;
19004;SDS011;9635;52.078;8.648;2022-10-17T21:45:20;22.65;;;18.10;;
19004;SDS011;9635;52.078;8.648;2022-10-17T21:50:26;25.67;;;18.20;;
19004;SDS011;9635;52.078;8.648;2022-10-17T21:55:29;26.80;;;19.75;;
19004;SDS011;9635;52.078;8.648;2022-10-17T22:00:33;22.60;;;18.60;;
19004;SDS011;9635;52.078;8.648;2022-10-17T22:05:36;28.45;;;18.92;;
19004;SDS011;9635;52.078;8.648;2022-10-17T22:10:39;34.20;;;20.95;;
19004;SDS011;9635;52.078;8.648;2022-10-17T22:15:43;34.15;;;24.27;;
19004;SDS011;9635;52.078;8.648;2022-10-17T22:20:46;32.63;;;23.73;;
19004;SDS011;9635;52.078;8.648;2022-10-17T22:25:52;29.73;;;22.73;;
19004;SDS011;9635;52.078;8.648;2022-10-17T22:30:56;28.90;;;22.02;;
19004;SDS011;9635;52.078;8.648;2022-10-17T22:35:59;34.00;;;23.70;;
19004;SDS011;9635;52.078;8.648;2022-10-17T22:41:03;37.72;;;24.60;;
19004;SDS011;9635;52.078;8.648;2022-10-17T22:46:08;34.53;;;24.05;;
19004;SDS011;9635;52.078;8.648;2022-10-17T22:51:13;48.17;;;26.92;;
19004;SDS011;9635;52.078;8.648;2022-10-17T22:56:17;35.30;;;26.80;;
19004;SDS011;9635;52.078;8.648;2022-10-17T23:01:23;34.90;;;25.67;;
19004;SDS011;9635;52.078;8.648;2022-10-17T23:06:26;41.85;;;27.77;;
19004;SDS011;9635;52.078;8.648;2022-10-17T23:11:29;46.47;;;29.35;;
19004;SDS011;9635;52.078;8.648;2022-10-17T23:16:33;41.88;;;27.77;;
19004;SDS011;9635;52.078;8.648;2022-10-17T23:21:36;38.08;;;26.75;;
19004;SDS011;9635;52.078;8.648;2022-10-17T23:26:39;39.38;;;28.45;;
19004;SDS011;9635;52.078;8.648;2022-10-17T23:31:43;47.83;;;29.08;;
19004;SDS011;9635;52.078;8.648;2022-10-17T23:36:46;40.47;;;29.08;;
19004;SDS011;9635;52.078;8.648;2022-10-17T23:41:49;46.17;;;28.60;;
19004;SDS011;9635;52.078;8.648;2022-10-17T23:46:53;42.83;;;27.30;;
19004;SDS011;9635;52.078;8.648;2022-10-17T23:51:56;43.00;;;28.83;;
19004;SDS011;9635;52.078;8.648;2022-10-17T23:56:59;40.33;;;27.92;;
